createdAt,value
2019-04-06T00:01:59.913Z,9.69
2019-04-06T00:04:33.320Z,9.69
2019-04-06T00:07:07.277Z,9.72
2019-04-06T00:09:40.029Z,9.68
2019-04-06T00:12:15.755Z,9.65
2019-04-06T00:14:49.196Z,9.71
2019-04-06T00:17:21.384Z,9.69
2019-04-06T00:19:53.586Z,9.67
2019-04-06T00:22:25.911Z,9.70
2019-04-06T00:24:57.800Z,9.70
2019-04-06T00:27:30.336Z,9.68
2019-04-06T00:30:02.387Z,9.67
2019-04-06T00:32:39.589Z,9.70
2019-04-06T00:35:13.263Z,9.73
2019-04-06T00:37:46.370Z,9.71
2019-04-06T00:40:20.288Z,9.72
2019-04-06T00:42:52.279Z,9.72
2019-04-06T00:45:24.130Z,9.75
2019-04-06T00:47:58.255Z,9.74
2019-04-06T00:50:32.440Z,9.81
2019-04-06T00:53:05.825Z,9.80
2019-04-06T00:55:38.482Z,9.83
2019-04-06T00:58:12.527Z,9.83
2019-04-06T01:00:46.798Z,9.84
2019-04-06T01:03:19.399Z,9.89
2019-04-06T01:05:53.464Z,9.88
2019-04-06T01:08:27.446Z,9.99
2019-04-06T01:11:02.227Z,10.04
2019-04-06T01:13:34.542Z,10.03
2019-04-06T01:16:07.528Z,10.01
2019-04-06T01:18:41.410Z,9.99
2019-04-06T01:21:16.369Z,9.98
2019-04-06T01:23:49.606Z,9.99
2019-04-06T01:26:21.380Z,9.98
2019-04-06T01:28:53.205Z,9.97
2019-04-06T01:31:26.515Z,9.93
2019-04-06T01:34:00.703Z,9.91
2019-04-06T01:36:33.478Z,9.95
2019-04-06T01:39:07.603Z,9.92
2019-04-06T01:41:40.537Z,9.91
2019-04-06T01:44:11.888Z,9.91
2019-04-06T01:46:44.419Z,9.99
2019-04-06T01:49:15.683Z,10.00
2019-04-06T01:51:47.116Z,9.94
2019-04-06T01:54:19.569Z,9.90
2019-04-06T01:56:52.488Z,9.95
2019-04-06T01:59:25.531Z,9.91
2019-04-06T02:02:09.951Z,9.89
2019-04-06T02:04:42.624Z,9.85
2019-04-06T02:07:15.488Z,9.81
2019-04-06T02:09:47.018Z,9.83
2019-04-06T02:12:20.553Z,9.77
2019-04-06T02:14:53.751Z,9.70
2019-04-06T02:17:27.515Z,9.70
2019-04-06T02:20:01.712Z,9.67
2019-04-06T02:22:34.708Z,9.71
2019-04-06T02:25:08.028Z,9.63
2019-04-06T02:27:41.796Z,9.66
2019-04-06T02:30:37.339Z,9.70
2019-04-06T02:33:18.911Z,9.64
2019-04-06T02:36:17.735Z,9.54
2019-04-06T02:38:57.576Z,9.52
2019-04-06T02:41:46.333Z,9.60
2019-04-06T02:44:18.804Z,9.54
2019-04-06T02:46:52.991Z,9.51
2019-04-06T02:49:25.908Z,9.43
2019-04-06T02:51:58.712Z,9.41
2019-04-06T02:54:32.694Z,9.32
2019-04-06T02:57:05.846Z,9.27
2019-04-06T02:59:39.800Z,9.20
2019-04-06T03:02:14.067Z,9.20
2019-04-06T03:04:46.337Z,9.17
2019-04-06T03:07:17.840Z,9.09
2019-04-06T03:09:49.965Z,9.04
2019-04-06T03:12:21.968Z,8.97
2019-04-06T03:14:53.895Z,8.93
2019-04-06T03:17:26.057Z,8.89
2019-04-06T03:19:58.138Z,8.87
2019-04-06T03:22:30.819Z,8.83
2019-04-06T03:25:02.794Z,8.79
2019-04-06T03:27:34.972Z,8.76
2019-04-06T03:30:08.717Z,8.71
2019-04-06T03:32:41.782Z,8.66
2019-04-06T03:35:13.812Z,8.63
2019-04-06T03:37:46.816Z,8.62
2019-04-06T03:40:19.835Z,8.58
2019-04-06T03:42:52.064Z,8.54
2019-04-06T03:45:24.024Z,8.47
2019-04-06T03:47:57.158Z,8.40
2019-04-06T03:50:31.143Z,8.36
2019-04-06T03:53:04.126Z,8.28
2019-04-06T03:55:38.068Z,8.21
2019-04-06T03:58:09.764Z,8.14
2019-04-06T04:00:42.612Z,8.08
2019-04-06T04:03:16.277Z,8.01
2019-04-06T04:05:50.161Z,7.96
2019-04-06T04:08:23.196Z,7.92
2019-04-06T04:10:56.349Z,7.89
2019-04-06T04:13:30.246Z,7.88
2019-04-06T04:16:01.529Z,7.82
2019-04-06T04:18:34.746Z,7.86
2019-04-06T04:21:08.380Z,7.86
2019-04-06T04:23:41.285Z,7.86
2019-04-06T04:26:14.459Z,7.86
2019-04-06T04:28:46.748Z,7.84
2019-04-06T04:31:19.568Z,7.81
2019-04-06T04:33:53.325Z,7.79
2019-04-06T04:36:26.700Z,7.75
2019-04-06T04:39:00.467Z,7.70
2019-04-06T04:41:33.452Z,7.68
2019-04-06T04:44:06.485Z,7.64
2019-04-06T04:46:37.866Z,7.59
2019-04-06T04:49:11.545Z,7.53
2019-04-06T04:51:43.800Z,7.46
2019-04-06T04:54:15.425Z,7.42
2019-04-06T04:56:49.136Z,7.38
2019-04-06T04:59:22.520Z,7.39
2019-04-06T05:01:56.310Z,7.40
2019-04-06T05:04:29.626Z,7.49
2019-04-06T05:07:03.573Z,7.49
2019-04-06T05:09:37.636Z,7.49
2019-04-06T05:12:11.549Z,7.46
2019-04-06T05:15:14.133Z,7.46
2019-04-06T05:17:46.818Z,7.48
2019-04-06T05:20:18.431Z,7.54
2019-04-06T05:22:52.502Z,7.65
2019-04-06T05:25:25.544Z,7.77
2019-04-06T05:27:59.511Z,7.84
2019-04-06T05:30:32.543Z,8.00
2019-04-06T05:33:06.585Z,8.09
2019-04-06T05:35:39.680Z,8.23
2019-04-06T05:38:13.479Z,8.25
2019-04-06T05:40:47.584Z,8.35
2019-04-06T05:43:19.488Z,8.51
2019-04-06T05:45:51.564Z,8.51
2019-04-06T05:48:24.662Z,8.60
2019-04-06T05:50:58.675Z,8.68
2019-04-06T05:53:31.728Z,8.73
2019-04-06T05:56:08.526Z,8.79
2019-04-06T05:58:44.132Z,8.82
2019-04-06T06:01:15.634Z,9.00
2019-04-06T06:03:48.564Z,9.12
2019-04-06T06:06:22.723Z,9.14
2019-04-06T06:08:55.913Z,9.16
2019-04-06T06:11:28.846Z,9.11
2019-04-06T06:14:00.521Z,9.22
2019-04-06T06:16:33.889Z,9.27
2019-04-06T06:19:07.993Z,9.30
2019-04-06T06:21:40.961Z,9.46
2019-04-06T06:24:14.728Z,9.52
2019-04-06T06:26:47.141Z,9.52
2019-04-06T06:29:18.930Z,9.59
2019-04-06T06:31:53.047Z,9.70
2019-04-06T06:34:26.077Z,9.57
2019-04-06T06:36:58.991Z,9.63
2019-04-06T06:39:32.923Z,9.52
2019-04-06T06:42:04.560Z,9.57
2019-04-06T06:44:37.919Z,9.45
2019-04-06T06:47:11.146Z,9.47
2019-04-06T06:49:44.981Z,9.54
2019-04-06T06:52:18.254Z,9.55
2019-04-06T06:54:49.887Z,9.62
2019-04-06T06:57:22.255Z,9.71
2019-04-06T06:59:55.892Z,9.76
2019-04-06T07:02:29.789Z,9.81
2019-04-06T07:05:03.179Z,9.81
2019-04-06T07:07:36.061Z,9.84
2019-04-06T07:10:09.188Z,9.93
2019-04-06T07:12:41.450Z,10.01
2019-04-06T07:15:14.969Z,10.01
2019-04-06T07:17:46.741Z,9.98
2019-04-06T07:20:19.037Z,10.09
2019-04-06T07:22:54.581Z,10.07
2019-04-06T07:25:28.037Z,10.10
2019-04-06T07:28:00.284Z,10.18
2019-04-06T07:30:31.838Z,10.12
2019-04-06T07:33:05.118Z,10.24
2019-04-06T07:35:38.152Z,10.39
2019-04-06T07:38:12.926Z,10.67
2019-04-06T07:40:45.258Z,10.72
2019-04-06T07:43:18.389Z,10.82
2019-04-06T07:45:49.722Z,10.95
2019-04-06T07:48:23.176Z,10.87
2019-04-06T07:50:57.109Z,10.97
2019-04-06T07:53:28.672Z,10.89
2019-04-06T07:56:00.039Z,10.69
2019-04-06T07:58:31.359Z,10.48
2019-04-06T08:01:03.591Z,10.59
2019-04-06T08:03:35.575Z,10.67
2019-04-06T08:06:08.330Z,10.81
2019-04-06T08:08:42.141Z,10.91
2019-04-06T08:11:16.214Z,10.91
2019-04-06T08:13:47.483Z,10.81
2019-04-06T08:16:20.246Z,10.87
2019-04-06T08:18:51.560Z,11.07
2019-04-06T08:21:24.470Z,11.15
2019-04-06T08:23:58.865Z,11.23
2019-04-06T08:26:30.171Z,11.08
2019-04-06T08:29:04.461Z,10.98
2019-04-06T08:31:38.258Z,10.97
2019-04-06T08:34:13.425Z,10.98
2019-04-06T08:36:45.295Z,11.12
2019-04-06T08:39:19.295Z,11.24
2019-04-06T08:41:53.293Z,11.21
2019-04-06T08:44:26.428Z,10.98
2019-04-06T08:47:00.338Z,11.04
2019-04-06T08:49:33.639Z,11.07
2019-04-06T08:52:07.486Z,11.05
2019-04-06T08:54:41.220Z,11.03
2019-04-06T08:57:14.584Z,11.07
2019-04-06T08:59:47.030Z,11.09
2019-04-06T09:02:18.814Z,11.27
2019-04-06T09:04:50.620Z,11.27
2019-04-06T09:07:22.507Z,11.19
2019-04-06T09:09:58.419Z,11.32
2019-04-06T09:12:29.796Z,11.41
2019-04-06T09:15:01.769Z,11.58
2019-04-06T09:17:35.017Z,11.65
2019-04-06T09:20:07.467Z,11.66
2019-04-06T09:22:41.182Z,11.57
2019-04-06T09:25:14.658Z,11.60
2019-04-06T09:27:46.895Z,11.95
2019-04-06T09:30:18.538Z,12.38
2019-04-06T09:32:50.652Z,12.48
2019-04-06T09:35:26.052Z,12.42
2019-04-06T09:37:59.186Z,12.46
2019-04-06T09:40:30.503Z,12.40
2019-04-06T09:43:03.545Z,12.48
2019-04-06T09:45:54.222Z,12.78
2019-04-06T09:48:50.703Z,12.61
2019-04-06T09:51:45.941Z,12.59
2019-04-06T09:54:50.210Z,12.54
2019-04-06T09:57:48.595Z,13.01
2019-04-06T10:00:30.401Z,13.33
2019-04-06T10:03:21.011Z,13.45
2019-04-06T10:06:14.646Z,13.39
2019-04-06T10:08:54.979Z,13.57
2019-04-06T10:11:50.772Z,13.22
2019-04-06T10:14:30.556Z,13.41
2019-04-06T10:17:13.044Z,13.92
2019-04-06T10:19:59.106Z,14.10
2019-04-06T10:22:40.490Z,14.08
2019-04-06T10:25:45.111Z,14.03
2019-04-06T10:28:28.348Z,14.46
2019-04-06T10:31:38.168Z,15.00
2019-04-06T10:34:21.347Z,15.35
2019-04-06T10:37:17.391Z,14.71
2019-04-06T10:40:14.632Z,14.72
2019-04-06T10:42:55.490Z,15.16
2019-04-06T10:45:46.466Z,14.79
2019-04-06T10:48:41.050Z,14.77
2019-04-06T10:51:41.689Z,15.12
2019-04-06T10:54:24.348Z,14.79
2019-04-06T10:57:24.815Z,14.66
2019-04-06T11:00:13.813Z,15.03
2019-04-06T11:03:03.667Z,14.85
2019-04-06T11:05:59.192Z,14.82
2019-04-06T11:08:43.642Z,15.03
2019-04-06T11:11:32.990Z,15.06
2019-04-06T11:14:27.298Z,15.28
2019-04-06T11:17:17.093Z,15.64
2019-04-06T11:20:11.189Z,15.47
2019-04-06T11:23:13.622Z,15.29
2019-04-06T11:26:05.026Z,15.30
2019-04-06T11:28:52.898Z,15.37
2019-04-06T11:31:43.178Z,15.55
2019-04-06T11:34:35.017Z,15.25
2019-04-06T11:37:37.406Z,15.57
2019-04-06T11:40:38.608Z,15.53
2019-04-06T11:43:32.370Z,15.64
2019-04-06T11:46:22.615Z,15.16
2019-04-06T11:49:15.029Z,15.37
2019-04-06T11:52:01.002Z,15.42
2019-04-06T11:54:56.952Z,14.93
2019-04-06T11:57:49.852Z,15.43
2019-04-06T12:00:44.397Z,15.40
2019-04-06T12:03:44.129Z,15.21
2019-04-06T12:06:39.387Z,15.76
2019-04-06T12:09:33.687Z,16.25
2019-04-06T12:12:25.441Z,16.49
2019-04-06T12:15:22.892Z,16.28
2019-04-06T12:18:12.040Z,16.00
2019-04-06T12:21:13.361Z,16.13
2019-04-06T12:24:08.617Z,16.39
2019-04-06T12:26:59.298Z,16.77
2019-04-06T12:29:52.818Z,16.63
2019-04-06T12:32:45.921Z,16.41
2019-04-06T12:35:30.427Z,16.21
2019-04-06T12:38:11.033Z,16.26
2019-04-06T12:41:04.341Z,16.36
2019-04-06T12:44:02.080Z,16.37
2019-04-06T12:47:12.075Z,16.33
2019-04-06T12:50:02.137Z,16.15
2019-04-06T12:52:57.184Z,16.22
2019-04-06T12:55:48.470Z,16.25
2019-04-06T12:58:59.997Z,16.82
2019-04-06T13:01:42.469Z,17.02
2019-04-06T13:04:32.439Z,17.01
2019-04-06T13:07:39.203Z,16.55
2019-04-06T13:10:47.003Z,16.33
2019-04-06T13:13:29.479Z,16.23
2019-04-06T13:16:17.943Z,16.56
2019-04-06T13:19:09.908Z,16.98
2019-04-06T13:22:16.912Z,17.17
2019-04-06T13:24:58.204Z,16.86
2019-04-06T13:27:39.042Z,16.52
2019-04-06T13:30:29.448Z,16.68
2019-04-06T13:33:15.398Z,16.62
2019-04-06T13:35:56.568Z,16.81
2019-04-06T13:38:46.413Z,16.96
2019-04-06T13:41:53.316Z,16.74
2019-04-06T13:44:54.198Z,16.57
2019-04-06T13:47:55.928Z,16.56
2019-04-06T13:50:47.605Z,16.46
2019-04-06T13:53:29.217Z,16.44
2019-04-06T13:56:10.322Z,16.32
2019-04-06T13:59:01.796Z,16.50
2019-04-06T14:01:51.099Z,16.61
2019-04-06T14:04:28.966Z,16.63
2019-04-06T14:07:17.096Z,16.43
2019-04-06T14:10:02.233Z,16.45
2019-04-06T14:13:07.914Z,16.39
2019-04-06T14:16:11.023Z,16.29
2019-04-06T14:19:04.682Z,16.16
2019-04-06T14:21:50.189Z,16.12
2019-04-06T14:24:40.613Z,16.00
2019-04-06T14:27:19.679Z,16.00
2019-04-06T14:30:16.350Z,16.04
2019-04-06T14:33:06.892Z,16.05
2019-04-06T14:35:56.618Z,16.19
2019-04-06T14:39:04.414Z,15.93
2019-04-06T14:42:01.477Z,15.93
2019-04-06T14:44:53.896Z,15.94
2019-04-06T14:47:50.750Z,15.81
2019-04-06T14:50:40.709Z,15.83
2019-04-06T14:53:25.800Z,15.82
2019-04-06T14:56:16.598Z,15.58
2019-04-06T14:59:18.108Z,15.68
2019-04-06T15:02:10.391Z,15.85
2019-04-06T15:05:13.182Z,15.96
2019-04-06T15:08:23.383Z,15.88
2019-04-06T15:11:11.051Z,15.55
2019-04-06T15:14:02.041Z,15.29
2019-04-06T15:16:45.093Z,15.31
2019-04-06T15:19:41.261Z,15.21
2019-04-06T15:22:21.231Z,15.31
2019-04-06T15:25:11.294Z,15.23
2019-04-06T15:28:01.826Z,15.26
2019-04-06T15:30:55.255Z,15.22
2019-04-06T15:33:47.161Z,15.18
2019-04-06T15:36:32.267Z,15.11
2019-04-06T15:39:36.040Z,15.10
2019-04-06T15:42:28.145Z,15.01
2019-04-06T15:45:11.912Z,15.00
2019-04-06T15:48:04.410Z,14.97
2019-04-06T15:51:00.233Z,14.92
2019-04-06T15:53:56.030Z,14.90
2019-04-06T15:56:49.911Z,14.90
2019-04-06T15:59:53.320Z,14.92
2019-04-06T16:02:50.435Z,14.89
2019-04-06T16:05:38.964Z,14.80
2019-04-06T16:08:30.017Z,14.71
2019-04-06T16:11:33.400Z,14.68
2019-04-06T16:14:24.843Z,14.64
2019-04-06T16:17:09.382Z,14.59
2019-04-06T16:20:04.335Z,14.53
2019-04-06T16:22:56.107Z,14.50
2019-04-06T16:25:47.498Z,14.47
2019-04-06T16:28:27.164Z,14.40
2019-04-06T16:31:13.708Z,14.31
2019-04-06T16:33:58.927Z,14.22
2019-04-06T16:36:39.504Z,14.21
2019-04-06T16:39:38.364Z,14.14
2019-04-06T16:42:30.426Z,14.08
2019-04-06T16:45:20.508Z,14.00
2019-04-06T16:48:17.733Z,13.98
2019-04-06T16:51:24.561Z,13.97
2019-04-06T16:54:02.998Z,13.97
2019-04-06T16:56:54.403Z,13.85
2019-04-06T16:59:55.246Z,13.82
2019-04-06T17:02:55.745Z,13.71
2019-04-06T17:05:47.867Z,13.68
2019-04-06T17:08:36.078Z,13.57
2019-04-06T17:11:23.113Z,13.52
2019-04-06T17:14:05.281Z,13.47
2019-04-06T17:17:06.234Z,13.45
2019-04-06T17:19:54.352Z,13.40
2019-04-06T17:22:48.670Z,13.32
2019-04-06T17:25:25.932Z,13.24
2019-04-06T17:28:19.707Z,13.23
2019-04-06T17:31:05.155Z,13.11
2019-04-06T17:33:45.459Z,13.05
2019-04-06T17:36:35.465Z,13.00
2019-04-06T17:39:15.298Z,12.87
2019-04-06T17:41:58.577Z,12.84
2019-04-06T17:44:49.625Z,12.76
2019-04-06T17:47:33.997Z,12.70
2019-04-06T17:50:15.880Z,12.68
2019-04-06T17:53:10.575Z,12.59
2019-04-06T17:55:55.965Z,12.54
2019-04-06T17:58:36.549Z,12.44
2019-04-06T18:01:26.499Z,12.43
2019-04-06T18:04:13.158Z,12.44
2019-04-06T18:07:20.316Z,12.32
2019-04-06T18:10:22.527Z,12.30
2019-04-06T18:13:18.273Z,12.26
2019-04-06T18:15:51.320Z,12.15
2019-04-06T18:18:24.159Z,12.12
2019-04-06T18:20:56.146Z,12.12
2019-04-06T18:23:29.123Z,12.00
2019-04-06T18:26:05.084Z,11.95
2019-04-06T18:28:39.696Z,11.95
2019-04-06T18:31:47.389Z,11.84
2019-04-06T18:34:20.381Z,10.75
2019-04-06T18:37:29.573Z,11.74
2019-04-06T18:40:03.728Z,11.71
2019-04-06T18:42:38.425Z,11.69
2019-04-06T18:45:12.479Z,11.60
2019-04-06T18:47:46.784Z,11.59
2019-04-06T18:50:20.277Z,11.53
2019-04-06T18:52:53.845Z,11.43
2019-04-06T18:55:27.760Z,11.36
2019-04-06T18:58:10.710Z,11.38
2019-04-06T19:00:34.590Z,11.37
2019-04-06T19:03:13.891Z,11.30
2019-04-06T19:05:41.611Z,11.30
2019-04-06T19:08:16.360Z,11.23
2019-04-06T19:10:49.998Z,11.26
2019-04-06T19:13:23.296Z,11.25
2019-04-06T19:15:55.775Z,11.18
2019-04-06T19:18:29.518Z,11.07
2019-04-06T19:21:02.929Z,10.99
2019-04-06T19:23:36.455Z,10.97
2019-04-06T19:26:10.189Z,10.88
2019-04-06T19:28:43.323Z,10.87
2019-04-06T19:31:17.037Z,10.92
2019-04-06T19:33:48.318Z,11.04
2019-04-06T19:36:21.413Z,11.07
2019-04-06T19:38:54.248Z,10.87
2019-04-06T19:41:30.494Z,10.82
2019-04-06T19:44:04.774Z,10.81
2019-04-06T19:46:39.677Z,10.66
2019-04-06T19:49:11.913Z,10.62
2019-04-06T19:51:45.448Z,10.63
2019-04-06T19:54:17.806Z,10.58
2019-04-06T19:56:51.920Z,10.53
2019-04-06T19:59:23.445Z,10.43
2019-04-06T20:01:54.812Z,10.37
2019-04-06T20:04:29.076Z,10.37
2019-04-06T20:07:01.454Z,10.31
2019-04-06T20:09:34.446Z,10.24
2019-04-06T20:12:07.777Z,10.22
2019-04-06T20:14:41.867Z,10.25
2019-04-06T20:17:15.480Z,10.17
2019-04-06T20:19:47.296Z,10.12
2019-04-06T20:22:21.400Z,10.20
2019-04-06T20:24:54.512Z,10.06
2019-04-06T20:27:26.667Z,9.93
2019-04-06T20:30:01.043Z,9.77
2019-04-06T20:32:34.649Z,9.77
2019-04-06T20:35:09.475Z,9.75
2019-04-06T20:37:41.656Z,9.67
2019-04-06T20:40:15.413Z,9.63
2019-04-06T20:42:48.252Z,9.68
2019-04-06T20:45:22.482Z,9.66
2019-04-06T20:47:55.592Z,9.60
2019-04-06T20:50:28.718Z,9.56
2019-04-06T20:53:04.594Z,9.54
2019-04-06T20:55:36.443Z,9.52
2019-04-06T20:58:10.537Z,9.55
2019-04-06T21:00:43.786Z,9.51
2019-04-06T21:03:16.866Z,9.51
2019-04-06T21:05:48.748Z,9.53
2019-04-06T21:08:20.669Z,9.47
2019-04-06T21:10:54.989Z,9.48
2019-04-06T21:13:28.777Z,9.47
2019-04-06T21:16:00.161Z,9.50
2019-04-06T21:18:33.318Z,9.44
2019-04-06T21:21:06.406Z,9.44
2019-04-06T21:23:39.812Z,9.41
2019-04-06T21:26:13.802Z,9.44
2019-04-06T21:28:48.809Z,9.41
2019-04-06T21:31:20.803Z,9.45
2019-04-06T21:33:56.030Z,9.37
2019-04-06T21:36:29.995Z,9.37
2019-04-06T21:39:02.163Z,9.26
2019-04-06T21:41:35.719Z,9.26
2019-04-06T21:44:08.915Z,9.24
2019-04-06T21:46:44.654Z,9.21
2019-04-06T21:49:18.977Z,9.13
2019-04-06T21:51:52.876Z,9.18
2019-04-06T21:54:25.973Z,9.10
2019-04-06T21:56:59.958Z,9.04
2019-04-06T21:59:34.097Z,9.08
2019-04-06T22:02:07.130Z,9.03
2019-04-06T22:04:40.897Z,8.99
2019-04-06T22:07:14.216Z,8.93
2019-04-06T22:09:47.939Z,8.90
2019-04-06T22:12:21.522Z,8.93
2019-04-06T22:14:54.238Z,8.91
2019-04-06T22:17:25.833Z,8.90
2019-04-06T22:19:59.302Z,8.89
2019-04-06T22:22:35.327Z,8.83
2019-04-06T22:25:09.397Z,8.74
2019-04-06T22:27:42.589Z,8.77
2019-04-06T22:30:18.722Z,8.69
2019-04-06T22:32:51.364Z,8.66
2019-04-06T22:35:24.763Z,8.67
2019-04-06T22:37:57.163Z,8.68
2019-04-06T22:40:30.123Z,8.69
2019-04-06T22:43:02.007Z,8.63
2019-04-06T22:45:35.949Z,8.61
2019-04-06T22:48:09.204Z,8.57
2019-04-06T22:50:43.049Z,8.55
2019-04-06T22:53:16.577Z,8.45
2019-04-06T22:55:48.724Z,8.40
2019-04-06T22:58:20.910Z,8.36
2019-04-06T23:00:56.800Z,8.25
2019-04-06T23:04:04.436Z,8.23
2019-04-06T23:06:41.696Z,8.34
2019-04-06T23:09:13.481Z,8.35
2019-04-06T23:11:47.202Z,8.28
2019-04-06T23:14:21.297Z,8.26
2019-04-06T23:16:54.289Z,8.27
2019-04-06T23:19:29.357Z,8.20
2019-04-06T23:22:01.300Z,8.24
2019-04-06T23:24:35.420Z,8.22
2019-04-06T23:27:08.515Z,8.24
2019-04-06T23:29:42.776Z,8.24
2019-04-06T23:32:15.897Z,8.21
2019-04-06T23:34:58.323Z,8.13
2019-04-06T23:37:22.424Z,8.18
2019-04-06T23:39:54.251Z,8.23
2019-04-06T23:42:27.492Z,8.23
2019-04-06T23:45:00.537Z,8.16
2019-04-06T23:47:32.395Z,8.14
2019-04-06T23:50:05.511Z,8.06
2019-04-06T23:52:38.372Z,8.00
2019-04-06T23:55:10.694Z,8.03
2019-04-06T23:57:42.916Z,7.98
